Terminal Aerodrome Forecast
Issued by NWS

Home | Current Version | Previous Version | Text Only | Print | Product List | Glossary On
Versions: 1 2 3 4 5 6 7 8 9 10 11 12 13 14 15 16 17 18 19 20
000
FTUS43 KDLH 201729
TAFBRD
TAF
KBRD 201729Z 2018/2118 VRB03KT 6SM BR BKN100
     FM201900 VRB03KT P6SM BKN100
     FM210100 VRB02KT 4SM BR FEW001
     FM210300 VRB02KT 1 1/2SM BR SCT001
     FM210500 00000KT 1/2SM FG BKN001
     FM211300 VRB02KT 1SM BR OVC001
     FM211600 02004KT 4SM BR BKN001=

USA.gov is the U.S. government's official web portal to all federal, state and local government web resources and services.